createdAt,value
2017-11-12T00:00:59.863Z,999.55
2017-11-12T00:01:59.800Z,999.50
2017-11-12T00:02:59.732Z,999.53
2017-11-12T00:03:59.671Z,999.53
2017-11-12T00:04:59.611Z,999.51
2017-11-12T00:05:59.557Z,999.53
2017-11-12T00:06:59.499Z,999.45
2017-11-12T00:07:59.422Z,999.49
2017-11-12T00:08:59.359Z,999.51
2017-11-12T00:09:59.297Z,999.52
2017-11-12T00:10:59.227Z,999.46
2017-11-12T00:11:59.168Z,999.48
2017-11-12T00:12:59.109Z,999.56
2017-11-12T00:13:59.052Z,999.54
2017-11-12T00:14:58.982Z,999.58
2017-11-12T00:15:58.918Z,999.56
2017-11-12T00:16:58.855Z,999.55
2017-11-12T00:17:58.785Z,999.55
2017-11-12T00:18:58.728Z,999.59
2017-11-12T00:19:58.664Z,999.53
2017-11-12T00:20:58.606Z,999.60
2017-11-12T00:21:58.549Z,999.58
2017-11-12T00:22:58.494Z,999.59
2017-11-12T00:23:58.413Z,999.55
2017-11-12T00:24:58.349Z,999.55
2017-11-12T00:25:58.286Z,999.57
2017-11-12T00:26:58.221Z,999.57
2017-11-12T00:27:58.161Z,999.55
2017-11-12T00:28:58.102Z,999.55
2017-11-12T00:29:58.047Z,999.54
2017-11-12T00:30:57.995Z,999.58
2017-11-12T00:31:57.910Z,999.54
2017-11-12T00:32:57.849Z,999.53
2017-11-12T00:33:57.778Z,999.55
2017-11-12T00:34:57.720Z,999.66
2017-11-12T00:35:57.658Z,999.55
2017-11-12T00:36:57.599Z,999.55
2017-11-12T00:37:57.544Z,999.58
2017-11-12T00:38:57.489Z,999.56
2017-11-12T00:39:57.405Z,999.61
2017-11-12T00:40:57.345Z,999.57
2017-11-12T00:41:57.275Z,999.61
2017-11-12T00:42:57.215Z,999.62
2017-11-12T00:43:57.154Z,999.64
2017-11-12T00:44:57.095Z,999.59
2017-11-12T00:45:57.042Z,999.65
2017-11-12T00:46:56.966Z,999.68
2017-11-12T00:47:56.903Z,999.69
2017-11-12T00:48:56.834Z,999.73
2017-11-12T00:49:56.772Z,999.67
2017-11-12T00:50:56.712Z,999.68
2017-11-12T00:51:56.651Z,999.68
2017-11-12T00:52:56.594Z,999.67
2017-11-12T00:53:56.539Z,999.63
2017-11-12T00:54:56.460Z,999.66
2017-11-12T00:55:56.397Z,999.69
2017-11-12T00:56:56.334Z,999.72
2017-11-12T00:57:56.277Z,999.74
2017-11-12T00:58:56.209Z,999.70
2017-11-12T00:59:56.149Z,999.68
2017-11-12T01:00:56.090Z,999.71
2017-11-12T01:01:56.036Z,999.69
2017-11-12T01:02:55.959Z,999.70
2017-11-12T01:03:55.894Z,999.65
2017-11-12T01:04:55.822Z,999.69
2017-11-12T01:05:55.764Z,999.74
2017-11-12T01:06:55.703Z,999.73
2017-11-12T01:07:55.643Z,999.77
2017-11-12T01:08:55.588Z,999.75
2017-11-12T01:09:55.535Z,999.72
2017-11-12T01:10:55.452Z,999.72
2017-11-12T01:11:55.388Z,999.71
2017-11-12T01:12:55.320Z,999.75
2017-11-12T01:13:55.259Z,999.70
2017-11-12T01:14:55.201Z,999.71
2017-11-12T01:15:55.142Z,999.70
2017-11-12T01:16:55.085Z,999.73
2017-11-12T01:17:55.033Z,999.74
2017-11-12T01:18:54.945Z,999.72
2017-11-12T01:19:54.877Z,999.71
2017-11-12T01:20:54.815Z,999.74
2017-11-12T01:21:54.756Z,999.72
2017-11-12T01:22:54.696Z,999.74
2017-11-12T01:23:54.638Z,999.73
2017-11-12T01:24:54.583Z,999.74
2017-11-12T01:25:54.505Z,999.76
2017-11-12T01:26:54.442Z,999.74
2017-11-12T01:27:54.374Z,999.74
2017-11-12T01:28:54.310Z,999.80
2017-11-12T01:29:54.251Z,999.66
2017-11-12T01:30:54.194Z,999.71
2017-11-12T01:31:54.135Z,999.67
2017-11-12T01:32:54.080Z,999.64
2017-11-12T01:33:54.000Z,999.66
2017-11-12T01:34:53.937Z,999.63
2017-11-12T01:35:53.866Z,999.65
2017-11-12T01:36:53.811Z,999.64
2017-11-12T01:37:53.748Z,999.67
2017-11-12T01:38:53.688Z,999.63
2017-11-12T01:39:53.633Z,999.63
2017-11-12T01:40:53.572Z,999.63
2017-11-12T01:41:53.495Z,999.63
2017-11-12T01:42:53.431Z,999.69
2017-11-12T01:43:53.362Z,999.64
2017-11-12T01:44:53.302Z,999.66
2017-11-12T01:45:53.242Z,999.61
2017-11-12T01:46:53.187Z,999.59
2017-11-12T01:47:53.129Z,999.66
2017-11-12T01:48:53.049Z,999.60
2017-11-12T01:49:52.988Z,999.67
2017-11-12T01:50:52.919Z,999.64
2017-11-12T01:51:52.859Z,999.63
2017-11-12T01:52:52.798Z,999.62
2017-11-12T01:53:52.740Z,999.62
2017-11-12T01:54:52.682Z,999.63
2017-11-12T01:55:52.627Z,999.64
2017-11-12T01:56:52.546Z,999.65
2017-11-12T01:57:52.484Z,999.64
2017-11-12T01:58:52.419Z,999.61
2017-11-12T01:59:52.358Z,999.63
2017-11-12T02:00:52.293Z,999.63
2017-11-12T02:01:52.235Z,999.62
2017-11-12T02:02:52.180Z,999.64
2017-11-12T02:03:52.104Z,999.63
2017-11-12T02:04:52.049Z,999.65
2017-11-12T02:05:51.971Z,999.61
2017-11-12T02:06:51.910Z,999.59
2017-11-12T02:07:51.850Z,999.62
2017-11-12T02:08:51.788Z,999.64
2017-11-12T02:09:51.731Z,999.59
2017-11-12T02:10:51.676Z,999.60
2017-11-12T02:11:51.593Z,999.66
2017-11-12T02:12:51.534Z,999.64
2017-11-12T02:13:51.466Z,999.70
2017-11-12T02:14:51.407Z,999.66
2017-11-12T02:15:51.346Z,999.66
2017-11-12T02:16:51.285Z,999.70
2017-11-12T02:17:51.220Z,999.74
2017-11-12T02:18:51.173Z,999.76
2017-11-12T02:19:51.095Z,999.64
2017-11-12T02:20:51.030Z,999.70
2017-11-12T02:21:50.961Z,999.71
2017-11-12T02:22:50.905Z,999.71
2017-11-12T02:23:50.840Z,999.72
2017-11-12T02:24:50.781Z,999.71
2017-11-12T02:25:50.725Z,999.71
2017-11-12T02:26:50.671Z,999.70
2017-11-12T02:27:50.589Z,999.73
2017-11-12T02:28:50.519Z,999.72
2017-11-12T02:29:50.457Z,999.63
2017-11-12T02:30:50.398Z,999.69
2017-11-12T02:31:50.335Z,999.65
2017-11-12T02:32:50.280Z,999.68
2017-11-12T02:33:50.221Z,999.66
2017-11-12T02:34:50.146Z,999.66
2017-11-12T02:35:50.084Z,999.68
2017-11-12T02:36:50.018Z,999.64
2017-11-12T02:37:49.955Z,999.66
2017-11-12T02:38:49.893Z,999.66
2017-11-12T02:39:49.830Z,999.67
2017-11-12T02:40:49.777Z,999.74
2017-11-12T02:41:49.728Z,999.70
2017-11-12T02:42:49.638Z,999.72
2017-11-12T02:43:49.575Z,999.72
2017-11-12T02:44:49.506Z,999.72
2017-11-12T02:45:49.447Z,999.74
2017-11-12T02:46:49.386Z,999.76
2017-11-12T02:47:49.320Z,999.71
2017-11-12T02:48:49.274Z,999.76
2017-11-12T02:49:49.194Z,999.76
2017-11-12T02:50:49.130Z,999.79
2017-11-12T02:51:49.058Z,999.76
2017-11-12T02:52:49.004Z,999.78
2017-11-12T02:53:48.938Z,999.77
2017-11-12T02:54:48.881Z,999.80
2017-11-12T02:55:48.826Z,999.77
2017-11-12T02:56:48.747Z,999.81
2017-11-12T02:57:48.683Z,999.88
2017-11-12T02:58:48.612Z,999.83
2017-11-12T02:59:48.552Z,999.86
2017-11-12T03:00:48.493Z,999.89
2017-11-12T03:01:48.432Z,999.87
2017-11-12T03:02:48.363Z,999.85
2017-11-12T03:03:48.302Z,999.89
2017-11-12T03:04:48.237Z,999.91
2017-11-12T03:05:48.167Z,999.85
2017-11-12T03:06:48.105Z,999.87
2017-11-12T03:07:48.045Z,999.83
2017-11-12T03:08:47.985Z,999.88
2017-11-12T03:09:47.929Z,999.84
2017-11-12T03:10:47.858Z,999.92
2017-11-12T03:11:47.793Z,999.94
2017-11-12T03:12:47.721Z,999.91
2017-11-12T03:13:47.658Z,999.90
2017-11-12T03:14:47.597Z,999.91
2017-11-12T03:15:47.537Z,999.87
2017-11-12T03:16:47.480Z,999.94
2017-11-12T03:17:47.407Z,999.94
2017-11-12T03:18:47.344Z,999.87
2017-11-12T03:19:47.273Z,999.91
2017-11-12T03:20:47.209Z,999.91
2017-11-12T03:21:47.148Z,999.96
2017-11-12T03:22:47.089Z,999.95
2017-11-12T03:23:47.033Z,999.91
2017-11-12T03:24:46.960Z,999.93
2017-11-12T03:25:46.895Z,999.86
2017-11-12T03:26:46.824Z,999.92
2017-11-12T03:27:46.760Z,999.90
2017-11-12T03:28:46.707Z,999.89
2017-11-12T03:29:46.645Z,999.88
2017-11-12T03:30:46.587Z,999.92
2017-11-12T03:31:46.509Z,999.94
2017-11-12T03:32:46.444Z,999.91
2017-11-12T03:33:46.376Z,999.87
2017-11-12T03:34:46.314Z,999.93
2017-11-12T03:35:46.251Z,999.87
2017-11-12T03:36:46.194Z,999.91
2017-11-12T03:37:46.137Z,999.87
2017-11-12T03:38:46.058Z,999.86
2017-11-12T03:39:45.997Z,999.91
2017-11-12T03:40:45.927Z,999.88
2017-11-12T03:41:45.866Z,999.88
2017-11-12T03:42:45.804Z,999.87
2017-11-12T03:43:45.745Z,999.93
2017-11-12T03:44:45.688Z,999.94
2017-11-12T03:45:45.610Z,999.94
2017-11-12T03:46:45.546Z,999.98
2017-11-12T03:47:45.476Z,999.90
2017-11-12T03:48:45.415Z,999.93
2017-11-12T03:49:45.355Z,999.95
2017-11-12T03:50:45.296Z,999.97
2017-11-12T03:51:45.241Z,999.92
2017-11-12T03:52:45.160Z,999.99
2017-11-12T03:53:45.096Z,999.97
2017-11-12T03:54:45.026Z,999.97
2017-11-12T03:55:44.970Z,1000.04
2017-11-12T03:56:44.904Z,999.94
2017-11-12T03:57:44.848Z,999.95
2017-11-12T03:58:44.793Z,999.95
2017-11-12T03:59:44.711Z,999.99
2017-11-12T04:00:44.655Z,999.96
2017-11-12T04:01:44.579Z,999.96
2017-11-12T04:02:44.518Z,1000.01
2017-11-12T04:03:44.455Z,999.99
2017-11-12T04:04:44.406Z,999.97
2017-11-12T04:05:44.344Z,999.97
2017-11-12T04:06:44.261Z,999.96
2017-11-12T04:07:44.192Z,999.94
2017-11-12T04:08:44.131Z,999.95
2017-11-12T04:09:44.068Z,999.93
2017-11-12T04:10:44.008Z,999.95
2017-11-12T04:11:43.952Z,999.94
2017-11-12T04:12:43.875Z,999.93
2017-11-12T04:13:43.812Z,999.92
2017-11-12T04:14:43.741Z,999.90
2017-11-12T04:15:43.681Z,999.88
2017-11-12T04:16:43.631Z,999.87
2017-11-12T04:17:43.560Z,999.85
2017-11-12T04:18:43.503Z,999.89
2017-11-12T04:19:43.426Z,999.89
2017-11-12T04:20:43.361Z,999.84
2017-11-12T04:21:43.298Z,999.82
2017-11-12T04:22:43.232Z,999.81
2017-11-12T04:23:43.168Z,999.81
2017-11-12T04:24:43.111Z,999.81
2017-11-12T04:25:43.061Z,999.84
2017-11-12T04:26:42.979Z,999.84
2017-11-12T04:27:42.916Z,999.81
2017-11-12T04:28:42.841Z,999.79
2017-11-12T04:29:42.782Z,999.75
2017-11-12T04:30:42.720Z,999.79
2017-11-12T04:31:42.663Z,999.75
2017-11-12T04:32:42.609Z,999.78
2017-11-12T04:33:42.526Z,999.72
2017-11-12T04:34:42.463Z,999.75
2017-11-12T04:35:42.392Z,999.72
2017-11-12T04:36:42.332Z,999.74
2017-11-12T04:37:42.271Z,999.74
2017-11-12T04:38:42.214Z,999.76
2017-11-12T04:39:42.159Z,999.69
2017-11-12T04:40:42.076Z,999.77
2017-11-12T04:41:42.013Z,999.76
2017-11-12T04:42:41.945Z,999.73
2017-11-12T04:43:41.884Z,999.78
2017-11-12T04:44:41.828Z,999.79
2017-11-12T04:45:41.766Z,999.81
2017-11-12T04:46:41.711Z,999.85
2017-11-12T04:47:41.626Z,999.81
2017-11-12T04:48:41.565Z,999.84
2017-11-12T04:49:41.495Z,999.84
2017-11-12T04:50:41.435Z,999.83
2017-11-12T04:51:41.375Z,999.84
2017-11-12T04:52:41.318Z,999.88
2017-11-12T04:53:41.245Z,999.77
2017-11-12T04:54:41.181Z,999.86
2017-11-12T04:55:41.115Z,999.87
2017-11-12T04:56:41.052Z,999.80
2017-11-12T04:57:40.986Z,999.80
2017-11-12T04:58:40.926Z,999.76
2017-11-12T04:59:40.870Z,999.80
2017-11-12T05:00:40.796Z,999.82
2017-11-12T05:01:40.732Z,999.80
2017-11-12T05:02:40.664Z,999.80
2017-11-12T05:03:40.601Z,999.80
2017-11-12T05:04:40.541Z,999.76
2017-11-12T05:05:40.478Z,999.77
2017-11-12T05:06:40.426Z,999.77
2017-11-12T05:07:40.367Z,999.75
2017-11-12T05:08:40.284Z,999.73
2017-11-12T05:09:40.221Z,999.75
2017-11-12T05:10:40.153Z,999.69
2017-11-12T05:11:40.092Z,999.66
2017-11-12T05:12:40.031Z,999.64
2017-11-12T05:13:39.974Z,999.68
2017-11-12T05:14:39.919Z,999.67
2017-11-12T05:15:39.838Z,999.68
2017-11-12T05:16:39.775Z,999.67
2017-11-12T05:17:39.705Z,999.59
2017-11-12T05:18:39.646Z,999.59
2017-11-12T05:19:39.591Z,999.62
2017-11-12T05:20:39.533Z,999.63
2017-11-12T05:21:39.471Z,999.59
2017-11-12T05:22:39.391Z,999.61
2017-11-12T05:23:39.336Z,999.60
2017-11-12T05:24:39.260Z,999.60
2017-11-12T05:25:39.197Z,999.57
2017-11-12T05:26:39.136Z,999.56
2017-11-12T05:27:39.079Z,999.56
2017-11-12T05:28:39.023Z,999.54
2017-11-12T05:29:38.943Z,999.53
2017-11-12T05:30:38.881Z,999.53
2017-11-12T05:31:38.810Z,999.47
2017-11-12T05:32:38.751Z,999.55
2017-11-12T05:33:38.689Z,999.52
2017-11-12T05:34:38.630Z,999.56
2017-11-12T05:35:38.574Z,999.53
2017-11-12T05:36:38.499Z,999.52
2017-11-12T05:37:38.432Z,999.51
2017-11-12T05:38:38.366Z,999.53
2017-11-12T05:39:38.302Z,999.48
2017-11-12T05:40:38.242Z,999.44
2017-11-12T05:41:38.185Z,999.43
2017-11-12T05:42:38.127Z,999.40
2017-11-12T05:43:38.050Z,999.40
2017-11-12T05:44:37.988Z,999.40
2017-11-12T05:45:37.928Z,999.39
2017-11-12T05:46:37.855Z,999.39
2017-11-12T05:47:37.797Z,999.39
2017-11-12T05:48:37.731Z,999.35
2017-11-12T05:49:37.679Z,999.36
2017-11-12T05:50:37.605Z,999.34
2017-11-12T05:51:37.540Z,999.31
2017-11-12T05:52:37.477Z,999.33
2017-11-12T05:53:37.415Z,999.32
2017-11-12T05:54:37.349Z,999.30
2017-11-12T05:55:37.288Z,999.36
2017-11-12T05:56:37.231Z,999.29
2017-11-12T05:57:37.158Z,999.35
2017-11-12T05:58:37.106Z,999.32
2017-11-12T05:59:37.031Z,999.35
2017-11-12T06:00:36.962Z,999.37
2017-11-12T06:01:36.902Z,999.36
2017-11-12T06:02:36.842Z,999.34
2017-11-12T06:03:36.784Z,999.34
2017-11-12T06:04:36.728Z,999.35
2017-11-12T06:05:36.650Z,999.36
2017-11-12T06:06:36.585Z,999.38
2017-11-12T06:07:36.520Z,999.33
2017-11-12T06:08:36.454Z,999.36
2017-11-12T06:09:36.395Z,999.31
2017-11-12T06:10:36.336Z,999.30
2017-11-12T06:11:36.280Z,999.31
2017-11-12T06:12:36.201Z,999.28
2017-11-12T06:13:36.140Z,999.29
2017-11-12T06:14:36.070Z,999.32
2017-11-12T06:15:36.023Z,999.29
2017-11-12T06:16:35.947Z,999.28
2017-11-12T06:17:35.884Z,999.30
2017-11-12T06:18:35.831Z,999.30
2017-11-12T06:19:35.757Z,999.31
2017-11-12T06:20:35.689Z,999.32
2017-11-12T06:21:35.631Z,999.29
2017-11-12T06:22:35.564Z,999.29
2017-11-12T06:23:35.500Z,999.28
2017-11-12T06:24:35.439Z,999.32
2017-11-12T06:25:35.384Z,999.30
2017-11-12T06:26:35.309Z,999.29
2017-11-12T06:27:35.244Z,999.34
2017-11-12T06:28:35.173Z,999.29
2017-11-12T06:29:35.113Z,999.28
2017-11-12T06:30:35.054Z,999.30
2017-11-12T06:31:34.992Z,999.25
2017-11-12T06:32:34.936Z,999.30
2017-11-12T06:33:34.863Z,999.30
2017-11-12T06:34:34.799Z,999.29
2017-11-12T06:35:34.735Z,999.30
2017-11-12T06:36:34.669Z,999.31
2017-11-12T06:37:34.605Z,999.29
2017-11-12T06:38:34.543Z,999.29
2017-11-12T06:39:34.493Z,999.27
2017-11-12T06:40:34.433Z,999.27
2017-11-12T06:41:34.349Z,999.24
2017-11-12T06:42:34.286Z,999.27
2017-11-12T06:43:34.217Z,999.31
2017-11-12T06:44:34.157Z,999.27
2017-11-12T06:45:34.098Z,999.24
2017-11-12T06:46:34.041Z,999.23
2017-11-12T06:47:33.986Z,999.27
2017-11-12T06:48:33.902Z,999.24
2017-11-12T06:49:33.837Z,999.22
2017-11-12T06:50:33.769Z,999.18
2017-11-12T06:51:33.708Z,999.16
2017-11-12T06:52:33.648Z,999.17
2017-11-12T06:53:33.592Z,999.17
2017-11-12T06:54:33.537Z,999.18
2017-11-12T06:55:33.455Z,999.13
2017-11-12T06:56:33.390Z,999.17
2017-11-12T06:57:33.322Z,999.14
2017-11-12T06:58:33.261Z,999.10
2017-11-12T06:59:33.200Z,999.13
2017-11-12T07:00:33.144Z,999.15
2017-11-12T07:01:33.089Z,999.13
2017-11-12T07:02:33.008Z,999.14
2017-11-12T07:03:32.946Z,999.16
2017-11-12T07:04:32.874Z,999.11
2017-11-12T07:05:32.814Z,999.17
2017-11-12T07:06:32.753Z,999.14
2017-11-12T07:07:32.696Z,999.14
2017-11-12T07:08:32.641Z,999.12
2017-11-12T07:09:32.559Z,999.06
2017-11-12T07:10:32.496Z,999.10
2017-11-12T07:11:32.426Z,999.10
2017-11-12T07:12:32.368Z,999.12
2017-11-12T07:13:32.304Z,999.09
2017-11-12T07:14:32.248Z,999.11
2017-11-12T07:15:32.193Z,999.05
2017-11-12T07:16:32.113Z,999.06
2017-11-12T07:17:32.053Z,999.04
2017-11-12T07:18:31.979Z,999.09
2017-11-12T07:19:31.922Z,999.08
2017-11-12T07:20:31.861Z,999.09
2017-11-12T07:21:31.801Z,999.03
2017-11-12T07:22:31.745Z,999.04
2017-11-12T07:23:31.669Z,999.04
2017-11-12T07:24:31.603Z,999.01
2017-11-12T07:25:31.542Z,999.02
2017-11-12T07:26:31.474Z,999.07
2017-11-12T07:27:31.414Z,999.02
2017-11-12T07:28:31.366Z,999.01
2017-11-12T07:29:31.296Z,998.98
2017-11-12T07:30:31.242Z,999.02
2017-11-12T07:31:31.160Z,998.97
2017-11-12T07:32:31.099Z,999.02
2017-11-12T07:33:31.030Z,999.01
2017-11-12T07:34:30.969Z,998.93
2017-11-12T07:35:30.910Z,998.93
2017-11-12T07:36:30.850Z,998.97
2017-11-12T07:37:30.793Z,998.93
2017-11-12T07:38:30.739Z,998.94
2017-11-12T07:39:30.658Z,998.92
2017-11-12T07:40:30.595Z,998.96
2017-11-12T07:41:30.526Z,998.96
2017-11-12T07:42:30.466Z,998.93
2017-11-12T07:43:30.410Z,998.91
2017-11-12T07:44:30.347Z,998.93
2017-11-12T07:45:30.291Z,998.87
2017-11-12T07:46:30.235Z,998.88
2017-11-12T07:47:30.158Z,998.89
2017-11-12T07:48:30.096Z,998.90
2017-11-12T07:49:30.028Z,998.94
2017-11-12T07:50:29.966Z,998.96
2017-11-12T07:51:29.907Z,998.97
2017-11-12T07:52:29.846Z,998.93
2017-11-12T07:53:29.787Z,998.99
2017-11-12T07:54:29.720Z,998.93
2017-11-12T07:55:29.656Z,998.91
2017-11-12T07:56:29.596Z,998.98
2017-11-12T07:57:29.538Z,998.91
2017-11-12T07:58:29.468Z,998.95
2017-11-12T07:59:29.409Z,998.94
2017-11-12T08:00:29.346Z,998.97
2017-11-12T08:01:29.286Z,998.94
2017-11-12T08:02:29.232Z,999.01
2017-11-12T08:03:29.175Z,998.99
2017-11-12T08:04:29.121Z,999.03
2017-11-12T08:05:29.042Z,999.02
2017-11-12T08:06:28.984Z,999.01
2017-11-12T08:07:28.909Z,999.00
2017-11-12T08:08:28.854Z,998.98
2017-11-12T08:09:28.792Z,998.92
2017-11-12T08:10:28.733Z,998.95
2017-11-12T08:11:28.674Z,998.94
2017-11-12T08:12:28.618Z,998.91
2017-11-12T08:13:28.563Z,998.89
2017-11-12T08:14:28.507Z,998.92
2017-11-12T08:15:28.428Z,998.91
2017-11-12T08:16:28.370Z,998.87
2017-11-12T08:17:28.302Z,998.91
2017-11-12T08:18:28.239Z,998.89
2017-11-12T08:19:28.180Z,998.88
2017-11-12T08:20:28.125Z,998.86
2017-11-12T08:21:28.061Z,998.87
2017-11-12T08:22:28.005Z,998.83
2017-11-12T08:23:27.958Z,998.80
2017-11-12T08:24:27.896Z,998.82
2017-11-12T08:25:27.817Z,998.80
2017-11-12T08:26:27.756Z,998.75
2017-11-12T08:27:27.697Z,998.73
2017-11-12T08:28:27.626Z,998.76
2017-11-12T08:29:27.570Z,998.70
2017-11-12T08:30:27.537Z,998.75
2017-11-12T08:31:27.451Z,998.76
2017-11-12T08:32:27.393Z,998.74
2017-11-12T08:33:27.337Z,998.75
2017-11-12T08:34:27.282Z,998.71
2017-11-12T08:35:27.207Z,998.69
2017-11-12T08:36:27.144Z,998.60
2017-11-12T08:37:27.087Z,998.60
2017-11-12T08:38:27.024Z,998.63
2017-11-12T08:39:26.963Z,998.59
2017-11-12T08:40:26.900Z,998.62
2017-11-12T08:41:26.839Z,998.63
2017-11-12T08:42:26.783Z,998.67
2017-11-12T08:43:26.724Z,998.67
2017-11-12T08:44:26.670Z,998.58
2017-11-12T08:45:26.616Z,998.59
2017-11-12T08:46:26.537Z,998.63
2017-11-12T08:47:26.476Z,998.67
2017-11-12T08:48:26.417Z,998.65
2017-11-12T08:49:26.352Z,998.63
2017-11-12T08:50:26.290Z,998.66
2017-11-12T08:51:26.232Z,998.64
2017-11-12T08:52:26.179Z,998.60
2017-11-12T08:53:26.115Z,998.63
2017-11-12T08:54:26.059Z,998.59
2017-11-12T08:55:26.004Z,998.62
2017-11-12T08:56:25.949Z,998.60
2017-11-12T08:57:25.872Z,998.63
2017-11-12T08:58:25.809Z,998.62
2017-11-12T08:59:25.750Z,998.55
2017-11-12T09:00:25.687Z,998.55
2017-11-12T09:01:25.624Z,998.57
2017-11-12T09:02:25.569Z,998.52
2017-11-12T09:03:25.507Z,998.51
2017-11-12T09:04:25.448Z,998.49
2017-11-12T09:05:25.392Z,998.52
2017-11-12T09:06:25.337Z,998.47
2017-11-12T09:07:25.282Z,998.48
2017-11-12T09:08:25.207Z,998.48
2017-11-12T09:09:25.149Z,998.47
2017-11-12T09:10:25.086Z,998.44
2017-11-12T09:11:25.020Z,998.43
2017-11-12T09:12:24.958Z,998.42
2017-11-12T09:13:24.901Z,998.41
2017-11-12T09:14:24.839Z,998.37
2017-11-12T09:15:24.786Z,998.40
2017-11-12T09:16:24.734Z,998.37
2017-11-12T09:17:24.675Z,998.36
2017-11-12T09:18:24.605Z,998.34
2017-11-12T09:19:24.559Z,998.32
2017-11-12T09:20:24.541Z,998.33
2017-11-12T09:21:24.433Z,998.33
2017-11-12T09:22:24.359Z,998.29
2017-11-12T09:23:24.304Z,998.29
2017-11-12T09:24:24.236Z,998.31
2017-11-12T09:25:24.179Z,998.30
2017-11-12T09:26:24.122Z,998.30
2017-11-12T09:27:24.062Z,998.32
2017-11-12T09:28:24.005Z,998.31
2017-11-12T09:29:23.948Z,998.25
2017-11-12T09:30:23.907Z,998.25
2017-11-12T09:31:23.915Z,998.25
2017-11-12T09:32:23.784Z,998.28
2017-11-12T09:33:23.705Z,998.22
2017-11-12T09:34:23.645Z,998.17
2017-11-12T09:35:23.620Z,998.18
2017-11-12T09:36:23.517Z,998.13
2017-11-12T09:37:23.519Z,998.12
2017-11-12T09:38:23.403Z,998.06
2017-11-12T09:39:23.343Z,998.08
2017-11-12T09:40:23.284Z,998.11
2017-11-12T09:41:23.227Z,998.07
2017-11-12T09:42:23.171Z,998.12
2017-11-12T09:43:23.116Z,998.14
2017-11-12T09:44:23.062Z,998.08
2017-11-12T09:45:22.982Z,998.09
2017-11-12T09:46:22.922Z,998.08
2017-11-12T09:47:22.855Z,998.09
2017-11-12T09:48:22.795Z,998.05
2017-11-12T09:49:22.736Z,998.05
2017-11-12T09:50:22.673Z,998.06
2017-11-12T09:51:22.626Z,998.05
2017-11-12T09:52:22.560Z,998.03
2017-11-12T09:53:22.504Z,998.09
2017-11-12T09:54:22.450Z,998.08
2017-11-12T09:55:22.393Z,998.03
2017-11-12T09:56:22.317Z,998.03
2017-11-12T09:57:22.260Z,998.04
2017-11-12T09:58:22.198Z,998.00
2017-11-12T09:59:22.131Z,998.03
2017-11-12T10:00:22.069Z,997.97
2017-11-12T10:01:22.012Z,998.01
2017-11-12T10:02:21.953Z,998.01
2017-11-12T10:03:21.894Z,997.98
2017-11-12T10:04:21.838Z,997.98
2017-11-12T10:05:21.782Z,997.95
2017-11-12T10:06:21.728Z,997.96
2017-11-12T10:07:21.672Z,997.91
2017-11-12T10:08:21.596Z,997.91
2017-11-12T10:09:21.532Z,997.91
2017-11-12T10:10:21.472Z,997.91
2017-11-12T10:11:21.406Z,997.91
2017-11-12T10:12:21.409Z,997.88
2017-11-12T10:13:21.289Z,997.90
2017-11-12T10:14:21.233Z,997.84
2017-11-12T10:15:21.172Z,997.84
2017-11-12T10:16:21.110Z,997.84
2017-11-12T10:17:21.061Z,997.85
2017-11-12T10:18:21.009Z,997.84
2017-11-12T10:19:20.930Z,997.83
2017-11-12T10:20:20.871Z,997.80
2017-11-12T10:21:20.811Z,997.81
2017-11-12T10:22:20.750Z,997.76
2017-11-12T10:23:20.689Z,997.74
2017-11-12T10:24:20.624Z,997.79
2017-11-12T10:25:20.566Z,997.74
2017-11-12T10:26:20.509Z,997.76
2017-11-12T10:27:20.451Z,997.72
2017-11-12T10:28:20.396Z,997.71
2017-11-12T10:29:20.344Z,997.69
2017-11-12T10:30:20.285Z,997.72
2017-11-12T10:31:20.208Z,997.72
2017-11-12T10:32:20.149Z,997.65
2017-11-12T10:33:20.102Z,997.67
2017-11-12T10:34:20.030Z,997.65
2017-11-12T10:35:19.964Z,997.62
2017-11-12T10:36:19.904Z,997.66
2017-11-12T10:37:19.849Z,997.66
2017-11-12T10:38:19.791Z,997.67
2017-11-12T10:39:19.731Z,997.67
2017-11-12T10:40:19.675Z,997.62
2017-11-12T10:41:19.618Z,997.65
2017-11-12T10:42:19.565Z,997.62
2017-11-12T10:43:19.508Z,997.56
2017-11-12T10:44:19.429Z,997.53
2017-11-12T10:45:19.373Z,997.56
2017-11-12T10:46:19.310Z,997.56
2017-11-12T10:47:19.253Z,997.57
2017-11-12T10:48:19.186Z,997.47
2017-11-12T10:49:19.129Z,997.53
2017-11-12T10:50:19.077Z,997.53
2017-11-12T10:51:19.013Z,997.57
2017-11-12T10:52:18.957Z,997.51
2017-11-12T10:53:18.898Z,997.47
2017-11-12T10:54:18.841Z,997.50
2017-11-12T10:55:18.790Z,997.53
2017-11-12T10:56:18.732Z,997.46
2017-11-12T10:57:18.654Z,997.47
2017-11-12T10:58:18.602Z,997.45
2017-11-12T10:59:18.537Z,997.43
2017-11-12T11:00:18.479Z,997.40
2017-11-12T11:01:18.412Z,997.43
2017-11-12T11:02:18.355Z,997.42
2017-11-12T11:03:18.296Z,997.38
2017-11-12T11:04:18.241Z,997.36
2017-11-12T11:05:18.182Z,997.35
2017-11-12T11:06:18.124Z,997.33
2017-11-12T11:07:18.067Z,997.31
2017-11-12T11:08:18.013Z,997.34
2017-11-12T11:09:17.946Z,997.31
2017-11-12T11:10:17.901Z,997.27
2017-11-12T11:11:17.823Z,997.31
2017-11-12T11:12:17.767Z,997.23
2017-11-12T11:13:17.708Z,997.23
2017-11-12T11:14:17.649Z,997.21
2017-11-12T11:15:17.582Z,997.23
2017-11-12T11:16:17.524Z,997.21
2017-11-12T11:17:17.465Z,997.14
2017-11-12T11:18:17.406Z,997.15
2017-11-12T11:19:17.352Z,997.11
2017-11-12T11:20:17.292Z,997.10
2017-11-12T11:21:17.237Z,997.09
2017-11-12T11:22:17.181Z,997.11
2017-11-12T11:23:17.125Z,997.11
2017-11-12T11:24:17.072Z,997.07
2017-11-12T11:25:16.990Z,997.06
2017-11-12T11:26:16.934Z,997.01
2017-11-12T11:27:16.874Z,997.02
2017-11-12T11:28:16.814Z,997.04
2017-11-12T11:29:16.752Z,997.04
2017-11-12T11:30:16.693Z,997.05
2017-11-12T11:31:16.634Z,997.03
2017-11-12T11:32:16.578Z,997.01
2017-11-12T11:33:16.516Z,996.99
2017-11-12T11:34:16.461Z,996.98
2017-11-12T11:35:16.404Z,996.98
2017-11-12T11:36:16.351Z,996.96
2017-11-12T11:37:16.296Z,996.96
2017-11-12T11:38:16.219Z,996.96
2017-11-12T11:39:16.158Z,996.93
2017-11-12T11:40:16.098Z,996.91
2017-11-12T11:41:16.040Z,996.93
2017-11-12T11:42:15.979Z,996.89
2017-11-12T11:43:15.915Z,996.90
2017-11-12T11:44:15.856Z,996.92
2017-11-12T11:45:15.798Z,996.86
2017-11-12T11:46:15.741Z,996.85
2017-11-12T11:47:15.680Z,996.84
2017-11-12T11:48:15.630Z,996.85
2017-11-12T11:49:15.574Z,996.82
2017-11-12T11:50:15.520Z,996.82
2017-11-12T11:51:15.436Z,996.78
2017-11-12T11:52:15.381Z,996.77
2017-11-12T11:53:15.323Z,996.74
2017-11-12T11:54:15.263Z,996.74
2017-11-12T11:55:15.196Z,996.74
2017-11-12T11:56:15.138Z,996.76
2017-11-12T11:57:15.081Z,996.80
2017-11-12T11:58:15.022Z,996.79
2017-11-12T11:59:14.966Z,996.83
2017-11-12T12:00:14.910Z,996.76
2017-11-12T12:01:14.853Z,996.83
2017-11-12T12:02:14.799Z,996.81
2017-11-12T12:03:14.726Z,996.77
2017-11-12T12:04:14.663Z,996.76
2017-11-12T12:05:14.604Z,996.78
2017-11-12T12:06:14.545Z,996.75
2017-11-12T12:07:14.485Z,996.76
2017-11-12T12:08:14.418Z,996.73
2017-11-12T12:09:14.361Z,996.73
2017-11-12T12:10:14.302Z,996.71
2017-11-12T12:11:14.245Z,996.67
2017-11-12T12:12:14.188Z,996.62
2017-11-12T12:13:14.134Z,996.61
2017-11-12T12:14:14.082Z,996.59
2017-11-12T12:15:14.023Z,996.62
2017-11-12T12:16:13.943Z,996.54
2017-11-12T12:17:13.884Z,996.55
2017-11-12T12:18:13.824Z,996.48
2017-11-12T12:19:13.758Z,996.42
2017-11-12T12:20:13.699Z,996.38
2017-11-12T12:21:13.640Z,996.37
2017-11-12T12:22:13.584Z,996.32
2017-11-12T12:23:13.524Z,996.33
2017-11-12T12:24:13.467Z,996.28
2017-11-12T12:25:13.412Z,996.25
2017-11-12T12:26:13.357Z,996.25
2017-11-12T12:27:13.283Z,996.17
2017-11-12T12:28:13.224Z,996.16